Time;durP1;ratioP1;P1;durP2;ratioP2;P2;SDS_P1;SDS_P2;PMS_P1;PMS_P2;Temp;Humidity;BMP_temperature;BMP_pressure;BME280_temperature;BME280_humidity;BME280_pressure;Samples;Min_cycle;Max_cycle;Signal;HPM_P1;HPM_P2
2022/11/09 00:00:51;;;;;;;4.85;2.30;;;12.60;99.90;;;;;;5071970;28;20027;-57
2022/11/09 00:03:16;;;;;;;5.53;2.60;;;12.60;99.90;;;;;;5070631;28;20016;-60
2022/11/09 00:05:42;;;;;;;4.10;2.40;;;12.60;99.90;;;;;;5071569;28;20020;-60
2022/11/09 00:08:09;;;;;;;5.93;2.33;;;12.60;99.90;;;;;;5070792;28;20111;-63
2022/11/09 00:10:36;;;;;;;3.97;2.13;;;12.70;99.90;;;;;;5072254;28;20035;-63
2022/11/09 00:13:01;;;;;;;6.07;2.28;;;12.70;99.90;;;;;;5091495;28;20024;-64
2022/11/09 00:15:27;;;;;;;4.97;2.35;;;12.80;99.90;;;;;;5090093;28;20052;-62
2022/11/09 00:17:53;;;;;;;4.43;2.10;;;12.80;99.90;;;;;;5091584;28;20028;-60
2022/11/09 00:20:19;;;;;;;5.93;2.05;;;12.90;99.90;;;;;;5091652;28;20036;-63
2022/11/09 00:22:48;;;;;;;5.45;2.33;;;12.80;99.90;;;;;;5090711;28;20056;-64
2022/11/09 00:25:14;;;;;;;3.38;1.70;;;12.80;99.90;;;;;;5090803;28;20024;-64
2022/11/09 00:27:40;;;;;;;4.85;2.03;;;12.90;99.90;;;;;;5090870;28;20043;-64
2022/11/09 00:30:06;;;;;;;2.95;1.70;;;12.90;99.90;;;;;;5088890;28;20024;-64
2022/11/09 00:32:32;;;;;;;6.60;1.65;;;13.00;99.90;;;;;;5091052;28;20024;-61
2022/11/09 00:34:57;;;;;;;3.70;1.70;;;13.10;99.90;;;;;;5077156;28;20389;-64
2022/11/09 00:37:23;;;;;;;3.67;1.50;;;13.10;99.90;;;;;;5068322;28;20516;-65
2022/11/09 00:39:48;;;;;;;5.22;1.60;;;13.10;99.90;;;;;;5069153;28;20023;-65
2022/11/09 00:42:14;;;;;;;7.85;2.08;;;13.10;99.90;;;;;;5068881;28;20040;-64
2022/11/09 00:44:40;;;;;;;3.95;1.92;;;13.20;99.90;;;;;;5069057;28;20024;-64
2022/11/09 00:47:05;;;;;;;3.35;1.60;;;13.20;99.90;;;;;;5070163;28;20033;-63
2022/11/09 00:49:31;;;;;;;7.03;2.20;;;13.20;99.90;;;;;;5073246;28;20017;-65
2022/11/09 00:51:56;;;;;;;3.40;1.75;;;13.20;99.90;;;;;;5105693;28;20116;-64
2022/11/09 00:54:22;;;;;;;4.55;1.75;;;13.30;99.90;;;;;;5073844;28;20078;-64
2022/11/09 00:56:49;;;;;;;4.53;1.67;;;13.30;99.90;;;;;;5074478;28;20469;-61
2022/11/09 00:59:14;;;;;;;6.80;1.60;;;13.30;99.90;;;;;;5073699;28;20454;-64
2022/11/09 01:01:40;;;;;;;5.95;1.90;;;13.30;99.90;;;;;;5074153;28;20542;-64
2022/11/09 01:04:05;;;;;;;5.15;1.70;;;13.30;99.90;;;;;;5074035;28;20465;-62
2022/11/09 01:06:31;;;;;;;2.90;1.45;;;13.30;99.90;;;;;;5073424;28;20054;-57
2022/11/09 01:08:57;;;;;;;4.57;1.60;;;13.30;99.90;;;;;;5072585;28;20055;-56
2022/11/09 01:11:23;;;;;;;4.78;1.55;;;13.30;99.90;;;;;;5072978;28;20020;-61
2022/11/09 01:13:48;;;;;;;4.75;1.75;;;13.30;99.90;;;;;;5073759;28;20013;-59
2022/11/09 01:16:20;;;;;;;4.05;1.42;;;13.30;99.90;;;;;;5073627;28;20100;-57
2022/11/09 01:18:46;;;;;;;5.50;2.03;;;13.30;99.90;;;;;;5072156;28;20021;-56
2022/11/09 01:21:13;;;;;;;4.70;1.60;;;13.40;99.90;;;;;;5073581;28;20028;-55
2022/11/09 01:23:39;;;;;;;6.35;1.60;;;13.40;99.90;;;;;;5073577;28;20140;-58
2022/11/09 01:26:08;;;;;;;4.38;1.50;;;13.50;99.90;;;;;;5072521;28;20049;-57
2022/11/09 01:28:33;;;;;;;4.63;1.75;;;13.50;99.90;;;;;;5073417;28;20024;-63
2022/11/09 01:31:11;;;;;;;6.00;1.60;;;13.50;99.90;;;;;;5073768;28;20578;-57
2022/11/09 01:33:36;;;;;;;5.15;1.73;;;13.50;99.90;;;;;;5073039;28;20032;-55
2022/11/09 01:36:08;;;;;;;4.60;1.63;;;13.50;99.90;;;;;;5073471;28;20032;-58
2022/11/09 01:38:36;;;;;;;3.72;1.90;;;13.50;99.90;;;;;;5073653;28;20052;-58
2022/11/09 01:41:02;;;;;;;4.78;1.50;;;13.40;99.90;;;;;;5072741;28;20103;-55
2022/11/09 01:43:28;;;;;;;3.75;1.58;;;13.40;99.90;;;;;;5072894;28;20095;-57
2022/11/09 01:46:19;;;;;;;7.38;2.17;;;13.40;99.90;;;;;;5073379;28;20032;-57
2022/11/09 01:48:54;;;;;;;3.70;2.03;;;13.50;99.90;;;;;;5072871;28;20029;-61
2022/11/09 01:51:33;;;;;;;6.60;2.03;;;13.50;99.90;;;;;;5073215;28;20020;-64
2022/11/09 01:54:05;;;;;;;6.20;1.45;;;13.40;99.90;;;;;;5073039;28;20036;-63
2022/11/09 01:56:31;;;;;;;2.83;1.60;;;13.50;99.90;;;;;;5072034;28;20017;-59
2022/11/09 01:59:05;;;;;;;7.80;1.67;;;13.50;99.90;;;;;;5071882;28;20074;-59
2022/11/09 02:01:31;;;;;;;2.50;1.55;;;13.40;99.90;;;;;;5072328;28;20056;-59
2022/11/09 02:04:11;;;;;;;3.67;1.55;;;13.40;99.90;;;;;;5073051;28;20024;-60
2022/11/09 02:06:37;;;;;;;5.35;1.65;;;13.40;99.90;;;;;;5072847;28;20029;-57
2022/11/09 02:09:11;;;;;;;3.22;1.33;;;13.40;99.90;;;;;;5072262;28;20028;-55
2022/11/09 02:11:37;;;;;;;3.22;1.30;;;13.40;99.90;;;;;;5072844;28;20465;-58
2022/11/09 02:14:04;;;;;;;3.88;1.50;;;13.40;99.90;;;;;;5072508;28;20020;-59
2022/11/09 02:16:31;;;;;;;4.50;1.30;;;13.40;99.90;;;;;;5072212;28;20027;-59
2022/11/09 02:18:59;;;;;;;3.15;1.20;;;13.40;99.90;;;;;;5072661;28;20066;-58
2022/11/09 02:21:27;;;;;;;3.47;1.60;;;13.40;99.90;;;;;;5072131;28;20025;-56
2022/11/09 02:23:53;;;;;;;6.70;1.90;;;13.40;99.90;;;;;;5071717;28;20040;-56
2022/11/09 02:26:27;;;;;;;3.88;1.60;;;13.40;99.90;;;;;;5072117;28;20546;-57
2022/11/09 02:28:55;;;;;;;2.83;1.48;;;13.40;99.90;;;;;;5071544;28;20026;-56
2022/11/09 02:31:24;;;;;;;3.90;1.88;;;13.30;99.90;;;;;;5072002;28;20493;-60
2022/11/09 02:33:49;;;;;;;5.53;1.95;;;13.30;99.90;;;;;;5072427;28;20031;-60
2022/11/09 02:36:15;;;;;;;4.00;1.73;;;13.30;99.90;;;;;;5071382;28;20021;-58
2022/11/09 02:38:41;;;;;;;5.40;1.85;;;13.20;99.90;;;;;;5071120;28;20047;-58
2022/11/09 02:41:07;;;;;;;3.95;1.50;;;13.10;99.90;;;;;;5070969;28;20024;-57
2022/11/09 02:43:35;;;;;;;5.03;1.65;;;13.10;99.90;;;;;;5071679;28;20024;-59
2022/11/09 02:46:01;;;;;;;3.35;1.70;;;13.00;99.90;;;;;;5070913;28;20027;-58
2022/11/09 02:48:26;;;;;;;8.25;1.80;;;12.90;99.90;;;;;;5104169;28;20024;-57
2022/11/09 02:50:52;;;;;;;5.68;2.25;;;12.90;99.90;;;;;;5071633;28;20028;-56
2022/11/09 02:53:18;;;;;;;4.22;1.95;;;12.80;99.90;;;;;;5071649;28;20032;-56
2022/11/09 02:55:43;;;;;;;5.25;1.70;;;12.80;99.90;;;;;;5070789;28;20066;-56
2022/11/09 02:58:09;;;;;;;7.97;1.88;;;12.80;99.90;;;;;;5071099;28;20093;-57
2022/11/09 03:00:34;;;;;;;4.25;2.00;;;12.80;99.90;;;;;;5072070;28;20028;-56
2022/11/09 03:03:00;;;;;;;2.45;1.67;;;12.90;99.90;;;;;;5071728;28;20021;-56
2022/11/09 03:05:25;;;;;;;3.97;1.70;;;12.90;99.90;;;;;;5071161;28;20103;-56
2022/11/09 03:07:51;;;;;;;3.58;1.65;;;12.80;99.90;;;;;;5071584;28;20499;-58
2022/11/09 03:10:17;;;;;;;3.72;1.73;;;12.90;99.90;;;;;;5071312;28;20022;-55
2022/11/09 03:12:42;;;;;;;6.65;2.10;;;12.90;99.90;;;;;;5070720;28;20028;-55
2022/11/09 03:15:08;;;;;;;2.45;1.50;;;12.90;99.90;;;;;;5069933;28;20116;-57
2022/11/09 03:17:34;;;;;;;3.30;1.63;;;12.90;99.90;;;;;;5071565;28;20358;-57
2022/11/09 03:20:00;;;;;;;4.55;1.77;;;12.90;99.90;;;;;;5070822;28;20060;-57
2022/11/09 03:22:26;;;;;;;6.72;2.03;;;13.00;99.90;;;;;;5071343;28;20052;-56
2022/11/09 03:24:52;;;;;;;3.67;1.52;;;13.00;99.90;;;;;;5070992;28;20498;-56
2022/11/09 03:27:18;;;;;;;4.53;1.90;;;13.00;99.90;;;;;;5071180;28;20040;-59
2022/11/09 03:29:43;;;;;;;7.55;1.52;;;13.00;99.90;;;;;;5071244;28;20032;-57
2022/11/09 03:32:09;;;;;;;3.08;1.38;;;13.00;99.90;;;;;;5070415;28;20441;-54
2022/11/09 03:34:35;;;;;;;4.85;2.20;;;13.00;99.90;;;;;;5071317;28;20024;-55
2022/11/09 03:37:00;;;;;;;6.15;1.77;;;13.10;99.90;;;;;;5071245;28;20025;-58
2022/11/09 03:39:26;;;;;;;6.38;2.35;;;13.10;99.90;;;;;;5070240;28;20051;-57
2022/11/09 03:41:51;;;;;;;5.95;2.05;;;13.00;99.90;;;;;;5071351;28;20068;-58
2022/11/09 03:44:18;;;;;;;4.55;1.60;;;13.00;99.90;;;;;;5070659;28;20016;-58
2022/11/09 03:46:44;;;;;;;4.25;1.95;;;13.00;99.90;;;;;;5070663;28;20041;-54
2022/11/09 03:49:10;;;;;;;6.97;1.63;;;13.00;99.90;;;;;;5070732;28;20021;-57
2022/11/09 03:51:36;;;;;;;5.47;1.77;;;13.00;99.90;;;;;;5071205;28;20364;-57
2022/11/09 03:54:01;;;;;;;4.93;1.52;;;13.00;99.90;;;;;;5070826;28;20503;-64
2022/11/09 03:56:27;;;;;;;3.65;1.63;;;12.90;99.90;;;;;;5071063;28;20035;-64
2022/11/09 03:58:52;;;;;;;4.00;1.58;;;12.90;99.90;;;;;;5071319;28;20021;-63
2022/11/09 04:01:18;;;;;;;3.78;1.38;;;12.80;99.90;;;;;;5070486;28;20031;-64
2022/11/09 04:03:44;;;;;;;4.75;1.65;;;12.80;99.90;;;;;;5071361;28;20524;-64
2022/11/09 04:06:09;;;;;;;3.15;1.23;;;12.70;99.90;;;;;;5071373;28;20035;-64
2022/11/09 04:08:35;;;;;;;6.35;1.70;;;12.70;99.90;;;;;;5069272;28;20070;-59
2022/11/09 04:11:00;;;;;;;5.90;1.40;;;12.70;99.90;;;;;;5071179;28;20062;-59
2022/11/09 04:13:26;;;;;;;2.47;1.25;;;12.60;99.90;;;;;;5071089;28;20031;-64
2022/11/09 04:15:51;;;;;;;6.07;1.25;;;12.60;99.90;;;;;;5070361;28;20033;-59
2022/11/09 04:18:17;;;;;;;4.45;1.50;;;12.50;99.90;;;;;;5070846;28;20067;-57
2022/11/09 04:20:43;;;;;;;4.47;1.60;;;12.50;99.90;;;;;;5070773;28;20028;-55
2022/11/09 04:23:11;;;;;;;4.15;1.33;;;12.40;99.90;;;;;;5072212;28;20033;-57
2022/11/09 04:25:38;;;;;;;5.88;2.10;;;12.40;99.90;;;;;;5074958;28;20063;-55
2022/11/09 04:28:06;;;;;;;5.78;1.77;;;12.30;99.90;;;;;;5074678;28;20107;-58
2022/11/09 04:30:34;;;;;;;5.35;2.47;;;12.30;99.90;;;;;;5074081;28;20027;-60
2022/11/09 04:33:00;;;;;;;5.15;2.03;;;12.20;99.90;;;;;;5074814;28;20024;-55
2022/11/09 04:35:28;;;;;;;6.10;1.92;;;12.20;99.90;;;;;;5073774;28;20033;-56
2022/11/09 04:38:09;;;;;;;6.60;1.52;;;12.20;99.90;;;;;;5074551;28;20477;-57
2022/11/09 04:40:35;;;;;;;5.82;1.40;;;12.10;99.90;;;;;;5074573;28;20082;-58
2022/11/09 04:43:02;;;;;;;7.20;2.15;;;12.10;99.90;;;;;;5074017;28;20032;-53
2022/11/09 04:45:28;;;;;;;5.10;2.00;;;12.00;99.90;;;;;;5074378;28;20028;-59
2022/11/09 04:48:06;;;;;;;7.78;1.70;;;12.00;99.90;;;;;;5074479;28;20039;-61
2022/11/09 04:50:32;;;;;;;7.03;1.60;;;12.00;99.90;;;;;;5074006;28;20069;-57
2022/11/09 04:53:12;;;;;;;2.40;1.30;;;12.00;99.90;;;;;;5074260;28;20029;-55
2022/11/09 04:55:38;;;;;;;4.65;1.65;;;12.10;99.90;;;;;;5074380;28;20043;-56
2022/11/09 04:58:05;;;;;;;7.32;1.70;;;12.10;99.90;;;;;;5073322;28;20433;-57
2022/11/09 05:00:32;;;;;;;2.95;1.10;;;12.20;99.90;;;;;;5079798;28;20012;-63
2022/11/09 05:03:02;;;;;;;5.13;2.03;;;12.30;99.90;;;;;;5093908;28;20072;-57
2022/11/09 05:05:28;;;;;;;6.65;1.80;;;12.40;99.90;;;;;;5093615;28;20036;-59
2022/11/09 05:07:54;;;;;;;7.53;2.33;;;12.40;99.90;;;;;;5094133;28;20032;-57
2022/11/09 05:10:19;;;;;;;4.65;1.58;;;12.50;99.90;;;;;;5094204;28;20020;-57
2022/11/09 05:12:45;;;;;;;4.75;1.48;;;12.50;99.90;;;;;;5092467;28;20071;-56
2022/11/09 05:15:10;;;;;;;4.75;1.50;;;12.50;99.90;;;;;;5093823;28;20536;-55
2022/11/09 05:17:36;;;;;;;7.88;1.58;;;12.50;99.90;;;;;;5093660;28;20035;-58
2022/11/09 05:20:02;;;;;;;4.10;1.35;;;12.50;99.90;;;;;;5094085;28;20099;-58
2022/11/09 05:25:12;;;;;;;6.55;1.30;;;12.50;99.90;;;;;;5073120;28;20086;-58
2022/11/09 05:27:37;;;;;;;7.47;1.40;;;12.60;99.90;;;;;;5073924;28;20481;-54
2022/11/09 05:30:04;;;;;;;7.10;1.60;;;12.50;99.90;;;;;;5073798;28;20033;-56
2022/11/09 05:32:29;;;;;;;8.38;2.08;;;12.50;99.90;;;;;;5072815;28;20064;-61
2022/11/09 05:34:55;;;;;;;5.85;1.38;;;12.50;99.90;;;;;;5073557;28;20109;-51
2022/11/09 05:37:21;;;;;;;3.30;1.20;;;12.50;99.90;;;;;;5073400;28;20056;-57
2022/11/09 05:39:47;;;;;;;4.50;1.30;;;12.60;99.90;;;;;;5072827;28;20012;-54
2022/11/09 05:42:12;;;;;;;3.00;1.30;;;12.60;99.90;;;;;;5073024;28;20468;-55
2022/11/09 05:44:38;;;;;;;5.63;1.20;;;12.70;99.90;;;;;;5072729;28;20031;-56
2022/11/09 05:47:04;;;;;;;5.25;1.48;;;12.60;99.90;;;;;;5071717;28;20036;-55
2022/11/09 05:49:29;;;;;;;9.20;2.05;;;12.60;99.90;;;;;;5073131;28;20484;-55
2022/11/09 05:51:55;;;;;;;6.35;2.03;;;12.50;99.90;;;;;;5073321;28;20107;-57
2022/11/09 05:54:20;;;;;;;5.22;1.38;;;12.50;99.90;;;;;;5072516;28;20063;-58
2022/11/09 05:56:46;;;;;;;5.75;1.20;;;12.40;99.90;;;;;;5073172;28;20029;-58
2022/11/09 05:59:11;;;;;;;4.53;1.40;;;12.40;99.90;;;;;;5071524;28;20024;-63
2022/11/09 06:01:37;;;;;;;4.57;1.30;;;12.30;99.90;;;;;;5072917;28;20036;-64
2022/11/09 06:04:04;;;;;;;4.85;1.65;;;12.20;99.90;;;;;;5073499;28;20021;-61
2022/11/09 06:06:30;;;;;;;6.32;1.80;;;12.10;99.90;;;;;;5070881;28;20166;-63
2022/11/09 06:08:55;;;;;;;8.48;1.70;;;12.00;99.90;;;;;;5071168;28;20100;-64
2022/11/09 06:11:21;;;;;;;6.50;1.35;;;12.00;99.90;;;;;;5070734;28;20021;-64
2022/11/09 06:13:46;;;;;;;5.50;1.30;;;11.90;99.90;;;;;;5071285;28;20029;-64
2022/11/09 06:16:12;;;;;;;6.53;1.40;;;11.80;99.90;;;;;;5070999;28;20571;-60
2022/11/09 06:18:37;;;;;;;6.57;1.70;;;11.80;99.90;;;;;;5072652;28;20059;-65
2022/11/09 06:21:04;;;;;;;6.25;1.38;;;11.80;99.90;;;;;;5071691;28;20050;-64
2022/11/09 06:23:30;;;;;;;7.13;1.70;;;11.70;99.90;;;;;;5081372;28;20063;-64
2022/11/09 06:25:58;;;;;;;6.30;1.80;;;11.70;99.90;;;;;;5092716;28;20028;-64
2022/11/09 06:28:24;;;;;;;4.70;1.63;;;11.70;99.90;;;;;;5092104;28;20028;-63
2022/11/09 06:30:50;;;;;;;8.43;1.73;;;11.70;99.90;;;;;;5093047;28;20032;-63
2022/11/09 06:33:15;;;;;;;5.68;1.75;;;11.70;99.90;;;;;;5092564;28;20524;-64
2022/11/09 06:35:41;;;;;;;8.73;2.20;;;11.70;99.90;;;;;;5090681;28;20028;-55
2022/11/09 06:38:08;;;;;;;3.63;1.27;;;11.60;99.90;;;;;;5091972;28;20388;-59
2022/11/09 06:40:35;;;;;;;6.90;1.67;;;11.60;99.90;;;;;;5092329;28;20023;-58
2022/11/09 06:43:01;;;;;;;6.53;2.15;;;11.60;99.90;;;;;;5092264;28;20425;-58
2022/11/09 06:45:28;;;;;;;7.07;2.53;;;11.50;99.90;;;;;;5090573;28;20024;-57
2022/11/09 06:47:58;;;;;;;9.93;2.25;;;11.50;99.90;;;;;;5091073;28;20134;-56
2022/11/09 06:50:25;;;;;;;4.55;1.73;;;11.50;99.90;;;;;;5090231;28;20459;-54
2022/11/09 06:52:56;;;;;;;6.72;1.75;;;11.50;99.90;;;;;;5092275;28;20020;-56
2022/11/09 06:55:21;;;;;;;5.80;1.95;;;11.40;99.90;;;;;;5090488;28;20016;-58
2022/11/09 06:57:47;;;;;;;6.47;1.73;;;11.40;99.90;;;;;;5091740;28;20039;-57
2022/11/09 07:00:13;;;;;;;7.45;1.85;;;11.40;99.90;;;;;;5091689;28;20020;-57
2022/11/09 07:02:39;;;;;;;4.72;2.03;;;11.40;99.90;;;;;;5092005;28;20108;-56
2022/11/09 07:05:04;;;;;;;8.88;2.58;;;11.30;99.90;;;;;;5091007;28;20468;-55
2022/11/09 07:07:30;;;;;;;5.47;2.00;;;11.30;99.90;;;;;;5091738;28;20426;-57
2022/11/09 07:09:57;;;;;;;5.40;2.00;;;11.30;99.90;;;;;;5091641;28;20024;-60
2022/11/09 07:12:22;;;;;;;6.78;2.30;;;11.30;99.90;;;;;;5091196;28;20408;-55
2022/11/09 07:14:48;;;;;;;7.07;2.70;;;11.30;99.90;;;;;;5091997;28;20059;-58
2022/11/09 07:17:13;;;;;;;4.95;1.95;;;11.30;99.90;;;;;;5090834;28;20055;-60
2022/11/09 07:19:39;;;;;;;6.15;2.13;;;11.30;99.90;;;;;;5092043;28;20107;-56
2022/11/09 07:22:05;;;;;;;9.77;2.22;;;11.30;99.90;;;;;;5091292;28;20103;-56
2022/11/09 07:24:30;;;;;;;9.40;2.40;;;11.30;99.90;;;;;;5091074;28;20056;-53
2022/11/09 07:26:56;;;;;;;7.03;2.30;;;11.30;99.90;;;;;;5091472;28;20085;-59
2022/11/09 07:29:21;;;;;;;8.27;2.28;;;11.30;99.90;;;;;;5091453;28;20027;-54
2022/11/09 07:31:47;;;;;;;12.02;2.63;;;11.30;99.90;;;;;;5090931;28;20028;-55
2022/11/09 07:34:12;;;;;;;11.07;2.67;;;11.30;99.90;;;;;;5090870;28;20123;-58
2022/11/09 07:36:38;;;;;;;9.07;3.42;;;11.30;99.90;;;;;;5091568;28;20067;-55
2022/11/09 07:39:04;;;;;;;11.38;3.30;;;11.40;99.90;;;;;;5090394;28;20024;-56
2022/11/09 07:41:29;;;;;;;9.93;3.13;;;11.40;99.90;;;;;;5091519;28;20024;-54
2022/11/09 07:43:56;;;;;;;5.97;2.47;;;11.40;99.90;;;;;;5091488;28;20031;-56
2022/11/09 07:46:22;;;;;;;8.65;2.63;;;11.40;99.90;;;;;;5090262;28;20042;-54
2022/11/09 07:48:47;;;;;;;7.68;2.35;;;11.50;99.90;;;;;;5090584;28;20031;-55
2022/11/09 07:51:13;;;;;;;3.85;2.10;;;11.50;99.90;;;;;;5090817;28;20024;-56
2022/11/09 07:53:39;;;;;;;11.52;2.78;;;11.50;99.90;;;;;;5089598;28;20020;-58
2022/11/09 07:56:05;;;;;;;6.80;2.08;;;11.60;99.90;;;;;;5090586;28;20081;-56
2022/11/09 07:58:31;;;;;;;9.23;2.10;;;11.60;99.90;;;;;;5090782;28;20056;-53
2022/11/09 08:00:57;;;;;;;8.25;2.30;;;11.60;99.90;;;;;;5090532;28;20044;-55
2022/11/09 08:03:23;;;;;;;7.82;2.97;;;11.60;99.90;;;;;;5091658;28;20066;-61
2022/11/09 08:05:49;;;;;;;9.35;2.47;;;11.70;99.90;;;;;;5092449;28;20479;-63
2022/11/09 08:08:15;;;;;;;6.50;2.13;;;11.70;99.90;;;;;;5090915;28;20496;-60
2022/11/09 08:10:42;;;;;;;8.07;2.10;;;11.70;99.90;;;;;;5092227;28;20035;-63
2022/11/09 08:13:13;;;;;;;6.30;2.88;;;11.70;99.90;;;;;;5091415;28;20468;-64
2022/11/09 08:15:39;;;;;;;6.47;2.38;;;11.80;99.90;;;;;;5091909;28;20035;-64
2022/11/09 08:18:12;;;;;;;5.13;1.77;;;11.80;99.90;;;;;;5091641;28;20156;-59
2022/11/09 08:20:38;;;;;;;8.95;2.55;;;11.80;99.90;;;;;;5078306;28;20056;-55
2022/11/09 08:23:04;;;;;;;5.05;2.08;;;11.90;99.90;;;;;;5069897;28;20068;-58
2022/11/09 08:25:30;;;;;;;6.95;2.38;;;11.90;99.90;;;;;;5070978;28;20095;-59
2022/11/09 08:27:56;;;;;;;6.18;1.95;;;11.90;99.90;;;;;;5070109;28;20036;-57
2022/11/09 08:30:22;;;;;;;7.43;1.90;;;11.90;99.90;;;;;;5069017;28;20370;-59
2022/11/09 08:32:48;;;;;;;8.27;2.53;;;12.00;99.90;;;;;;5071215;28;20469;-58
2022/11/09 08:35:17;;;;;;;7.07;2.20;;;12.00;99.90;;;;;;5070317;28;20388;-57
2022/11/09 08:37:45;;;;;;;13.82;2.47;;;12.10;99.90;;;;;;5070382;28;20506;-64
2022/11/09 08:40:11;;;;;;;8.50;1.98;;;12.20;99.90;;;;;;5071070;28;20028;-60
2022/11/09 08:42:36;;;;;;;6.47;1.90;;;12.20;99.90;;;;;;5070649;28;20029;-59
2022/11/09 08:45:03;;;;;;;8.00;2.05;;;12.30;99.90;;;;;;5070032;28;20021;-60
2022/11/09 08:47:28;;;;;;;7.55;2.00;;;12.30;99.90;;;;;;5081046;28;20033;-58
2022/11/09 08:49:54;;;;;;;7.93;2.30;;;12.40;99.90;;;;;;5069407;28;20035;-59
2022/11/09 08:52:20;;;;;;;4.47;1.90;;;12.50;99.90;;;;;;5080423;28;20408;-61
2022/11/09 08:54:45;;;;;;;7.75;1.80;;;12.50;99.90;;;;;;5075897;28;20171;-55
2022/11/09 08:57:11;;;;;;;7.22;2.03;;;12.50;99.90;;;;;;5088908;28;20052;-57
2022/11/09 08:59:37;;;;;;;8.45;2.00;;;12.50;99.90;;;;;;5089310;28;20046;-57
2022/11/09 09:02:03;;;;;;;10.38;1.98;;;12.60;99.90;;;;;;5088895;28;20091;-56
2022/11/09 09:04:29;;;;;;;6.10;1.92;;;12.60;99.90;;;;;;5089372;28;20388;-58
2022/11/09 09:06:55;;;;;;;7.28;1.73;;;12.60;99.90;;;;;;5089215;28;20020;-59
2022/11/09 09:09:20;;;;;;;6.00;2.03;;;12.70;99.90;;;;;;5092323;28;20089;-61
2022/11/09 09:11:46;;;;;;;7.45;2.00;;;12.80;99.90;;;;;;5092693;28;20028;-60
2022/11/09 09:14:11;;;;;;;8.98;1.85;;;12.90;99.90;;;;;;5093528;28;20409;-62
2022/11/09 09:16:37;;;;;;;7.47;2.15;;;13.00;99.90;;;;;;5092639;28;20016;-59
2022/11/09 09:19:03;;;;;;;5.50;1.70;;;13.10;99.90;;;;;;5093544;28;20024;-58
2022/11/09 09:21:28;;;;;;;8.43;1.88;;;13.20;99.90;;;;;;5091952;28;20027;-57
2022/11/09 09:23:54;;;;;;;7.40;2.08;;;13.30;99.90;;;;;;5092726;28;20871;-56
2022/11/09 09:26:20;;;;;;;7.40;2.00;;;13.40;99.90;;;;;;5093090;28;20115;-57
2022/11/09 09:28:46;;;;;;;9.90;2.95;;;13.50;99.90;;;;;;5093357;28;20054;-58
2022/11/09 09:31:11;;;;;;;5.20;1.92;;;13.60;99.90;;;;;;5092380;28;20023;-59
2022/11/09 09:33:37;;;;;;;8.90;1.98;;;13.60;99.90;;;;;;5093573;28;20024;-59
2022/11/09 09:36:03;;;;;;;6.03;1.88;;;13.80;99.90;;;;;;5092881;28;20031;-58
2022/11/09 09:38:29;;;;;;;7.90;2.22;;;13.80;99.90;;;;;;5092532;28;20093;-57
2022/11/09 09:41:00;;;;;;;9.93;1.88;;;13.80;99.90;;;;;;5092916;28;20376;-58
2022/11/09 09:43:47;;;;;;;9.55;2.00;;;13.90;99.90;;;;;;5092873;28;20025;-56
2022/11/09 09:46:17;;;;;;;8.30;1.83;;;13.80;99.90;;;;;;5091372;28;20447;-54
2022/11/09 09:48:49;;;;;;;9.15;1.90;;;13.70;99.90;;;;;;5093475;28;20384;-56
2022/11/09 09:51:26;;;;;;;4.80;1.90;;;13.60;99.90;;;;;;5091907;28;20024;-55
2022/11/09 09:54:11;;;;;;;7.88;1.90;;;13.60;99.90;;;;;;5091821;28;20159;-56
2022/11/09 09:56:40;;;;;;;11.98;2.33;;;13.50;99.90;;;;;;5092335;28;20392;-57
2022/11/09 09:59:23;;;;;;;5.10;1.95;;;13.50;99.90;;;;;;5091712;28;20031;-55
2022/11/09 10:01:49;;;;;;;5.28;1.98;;;13.40;99.90;;;;;;5092353;28;20017;-56
2022/11/09 10:04:25;;;;;;;7.80;1.80;;;13.40;99.90;;;;;;5091987;28;20024;-58
2022/11/09 10:07:12;;;;;;;5.95;2.08;;;13.50;99.90;;;;;;5091563;28;20072;-59
2022/11/09 10:09:44;;;;;;;7.18;1.80;;;13.60;99.90;;;;;;5092683;28;20061;-62
2022/11/09 10:12:31;;;;;;;6.88;2.00;;;13.70;99.90;;;;;;5091516;28;20028;-59
2022/11/09 10:15:14;;;;;;;7.55;1.63;;;13.70;99.90;;;;;;5091711;28;20111;-61
2022/11/09 10:18:08;;;;;;;7.53;2.15;;;13.70;99.80;;;;;;5091697;28;20529;-59
2022/11/09 10:21:17;;;;;;;3.53;1.40;;;13.70;99.70;;;;;;5090629;28;20443;-61
2022/11/09 10:24:01;;;;;;;6.35;1.30;;;13.80;99.60;;;;;;5091898;28;20059;-61
2022/11/09 10:26:32;;;;;;;7.05;1.50;;;13.90;99.60;;;;;;5090462;28;20020;-57
2022/11/09 10:29:01;;;;;;;;;;;14.00;99.70;;;;;;5092419;28;20052;-64
2022/11/09 10:31:32;;;;;;;7.05;1.85;;;14.10;99.50;;;;;;5091683;28;20303;-62
2022/11/09 10:34:15;;;;;;;5.07;1.42;;;14.20;99.00;;;;;;5091390;28;20043;-57
2022/11/09 10:37:19;;;;;;;5.78;1.77;;;14.20;98.70;;;;;;5091700;28;20062;-57
2022/11/09 10:40:12;;;;;;;7.53;1.35;;;14.20;98.50;;;;;;5078681;28;20503;-62
2022/11/09 10:42:37;;;;;;;6.90;2.15;;;14.20;98.40;;;;;;5091014;28;20154;-57
2022/11/09 10:45:28;;;;;;;7.72;1.52;;;14.20;98.10;;;;;;5092109;28;20516;-63
2022/11/09 10:47:54;;;;;;;10.32;1.95;;;14.30;98.20;;;;;;5091407;28;20040;-64
2022/11/09 10:50:28;;;;;;;7.35;1.90;;;14.30;98.20;;;;;;5090589;28;20020;-60
2022/11/09 10:53:14;;;;;;;7.35;1.58;;;14.50;97.50;;;;;;5091252;28;20452;-62
2022/11/09 10:55:57;;;;;;;6.32;1.60;;;14.50;97.70;;;;;;5091280;28;20024;-64
2022/11/09 10:58:33;;;;;;;7.20;1.38;;;14.60;97.20;;;;;;5090918;28;20099;-60
2022/11/09 11:01:11;;;;;;;4.72;1.45;;;14.70;97.20;;;;;;5092073;28;20074;-61
2022/11/09 11:03:38;;;;;;;6.50;1.65;;;14.80;96.90;;;;;;5090206;28;20500;-59
2022/11/09 11:06:05;;;;;;;9.05;2.15;;;14.90;96.20;;;;;;5089484;28;20038;-60
2022/11/09 11:08:37;;;;;;;4.80;1.50;;;14.90;95.70;;;;;;5091339;28;20028;-57
2022/11/09 11:11:21;;;;;;;5.88;1.60;;;14.90;95.30;;;;;;5090742;28;20024;-56
2022/11/09 11:13:48;;;;;;;4.95;1.13;;;14.90;95.40;;;;;;5090484;28;20092;-59
2022/11/09 11:16:24;;;;;;;4.68;1.20;;;14.90;95.20;;;;;;5089600;28;20488;-59
2022/11/09 11:18:49;;;;;;;4.43;1.30;;;14.90;94.50;;;;;;5091274;28;20111;-58
2022/11/09 11:21:21;;;;;;;4.20;1.48;;;14.90;94.20;;;;;;5091054;28;20449;-60
2022/11/09 11:24:18;;;;;;;8.20;1.65;;;14.90;94.40;;;;;;5090488;28;20105;-61
2022/11/09 11:26:58;;;;;;;4.68;1.65;;;14.90;94.20;;;;;;5090630;28;20082;-62
2022/11/09 11:30:14;;;;;;;7.35;1.60;;;15.00;94.40;;;;;;5089342;28;20039;-59
2022/11/09 11:32:40;;;;;;;4.47;1.50;;;15.00;93.70;;;;;;5047762;28;20055;-58
2022/11/09 11:35:21;;;;;;;5.80;2.05;;;14.90;93.60;;;;;;5047687;28;20080;-56
2022/11/09 11:37:58;;;;;;;2.83;1.10;;;14.80;93.40;;;;;;5071228;28;20388;-58
2022/11/09 11:40:33;;;;;;;8.95;1.52;;;14.80;93.90;;;;;;5090841;28;20118;-59
2022/11/09 11:43:08;;;;;;;5.20;1.52;;;14.80;93.90;;;;;;5090879;28;20404;-58
2022/11/09 11:45:41;;;;;;;5.78;1.42;;;14.80;93.90;;;;;;5089475;28;20046;-56
2022/11/09 11:48:41;;;;;;;4.97;1.60;;;14.70;93.80;;;;;;5089582;28;20032;-60
2022/11/09 11:51:20;;;;;;;10.55;1.83;;;14.70;94.00;;;;;;5090344;28;20028;-56
2022/11/09 11:54:01;;;;;;;6.13;1.98;;;14.70;94.20;;;;;;5090273;28;20073;-58
2022/11/09 11:56:42;;;;;;;6.15;1.55;;;14.80;94.10;;;;;;5089701;28;20028;-58
2022/11/09 11:59:45;;;;;;;4.45;1.30;;;14.90;94.20;;;;;;5089314;28;20020;-56
2022/11/09 12:02:17;;;;;;;8.15;1.60;;;14.90;93.60;;;;;;5090256;28;20498;-56
2022/11/09 12:05:14;;;;;;;6.30;1.55;;;14.90;93.70;;;;;;5090395;28;20278;-57
2022/11/09 12:07:46;;;;;;;5.38;1.17;;;14.90;93.90;;;;;;5089267;28;20037;-58
2022/11/09 12:10:32;;;;;;;3.70;1.40;;;15.00;94.10;;;;;;5090195;28;20027;-58
2022/11/09 12:13:17;;;;;;;5.10;1.70;;;15.00;94.10;;;;;;5089884;28;20027;-62
2022/11/09 12:16:01;;;;;;;5.05;1.05;;;15.00;93.70;;;;;;5089679;28;20024;-60
2022/11/09 12:18:37;;;;;;;5.22;1.63;;;15.10;93.80;;;;;;5090297;28;20028;-63
2022/11/09 12:21:09;;;;;;;5.85;2.00;;;15.10;93.10;;;;;;5089166;28;20212;-55
2022/11/09 12:24:02;;;;;;;6.63;1.65;;;15.00;93.20;;;;;;5090280;28;20080;-64
2022/11/09 12:26:56;;;;;;;5.18;1.42;;;14.90;93.10;;;;;;5088563;28;20434;-59
2022/11/09 12:29:29;;;;;;;6.43;2.03;;;15.00;93.20;;;;;;5090626;28;20385;-62
2022/11/09 12:32:00;;;;;;;7.28;1.50;;;15.00;93.20;;;;;;5087797;28;20032;-60
2022/11/09 12:34:56;;;;;;;5.63;1.58;;;15.10;92.80;;;;;;5090588;28;20024;-61
2022/11/09 12:37:57;;;;;;;5.45;1.40;;;15.10;92.60;;;;;;5089285;28;20016;-61
2022/11/09 12:40:26;;;;;;;2.93;1.37;;;15.00;92.40;;;;;;5064247;28;20036;-61
2022/11/09 12:43:23;;;;;;;8.40;1.75;;;14.90;92.30;;;;;;5091042;28;20028;-59
2022/11/09 12:45:51;;;;;;;5.43;1.80;;;14.80;92.20;;;;;;5093323;28;20312;-60
2022/11/09 12:48:31;;;;;;;5.95;1.45;;;14.70;92.30;;;;;;5093369;28;20105;-62
2022/11/09 12:50:59;;;;;;;5.43;1.55;;;14.70;92.40;;;;;;5092660;28;20099;-57
2022/11/09 12:53:31;;;;;;;4.78;1.40;;;14.80;92.40;;;;;;5092732;28;20065;-61
2022/11/09 12:56:04;;;;;;;4.20;1.20;;;14.90;92.30;;;;;;5093170;28;20016;-59
2022/11/09 12:58:32;;;;;;;5.80;1.73;;;14.90;92.10;;;;;;5093298;28;20036;-62
2022/11/09 13:01:00;;;;;;;5.97;1.75;;;14.90;91.80;;;;;;5091631;28;20024;-62
2022/11/09 13:03:30;;;;;;;3.40;1.30;;;14.90;91.90;;;;;;5093724;28;20024;-61